ナイロビ の空港の天気 - METARとTAF

ジョモ・ケニヤッタ国際空港 ( HKJK / NBO ) - ケニア ナイロビ
飛行場実況気象(Metar)
観測時間11/27 11:30 EAT (11/27 08:30 UTC)
風向・風速北東 5m/s
視程10km以上
天気現象
全天の8割程度の雲 雲底高度 760m
気温22℃
湿度57%
気圧1020hPa
METARHKJK 270830Z 05009KT 9999 BKN025 22/13 Q1020 NOSIG
過去の天気等 Google飛行場航空写真 Wunderground天気予報

過去48時間のMETAR

飛行場予報(TAF)
発表時間: 11/27 08:00 EAT (11/27 05:00 UTC)
予報対象時間: 27日9時 EAT ~ 28日15時 EAT
風向・風速東北東 5m/s
視程10km以上
全天の8割程度の雲 雲底高度 790m
27日23時 EAT ~ 28日2時 EAT に徐々に
全天の4割程度の雲 雲底高度 640m
28日4時 EAT ~ 28日8時 EAT に徐々に
少しの雲 雲底高度 240m
全天の8割程度の雲 雲底高度 550m
28日11時 EAT ~ 28日14時 EAT に徐々に
全天の8割程度の雲 雲底高度 760m
TAF HKJK 270500Z 2706/2812 06010KT 9999 BKN026
BECMG 2720/2723 SCT021
BECMG 2801/2805 FEW008 BKN018
BECMG 2808/2811 BKN025